sensor_id;sensor_type;location;lat;lon;timestamp;temperature;humidity
14103;DHT22;7129;48.832;12.472;2022-12-10T00:03:26;2.00;99.90
14103;DHT22;7129;48.832;12.472;2022-12-10T00:08:28;2.00;99.90
14103;DHT22;7129;48.832;12.472;2022-12-10T00:13:30;2.00;99.90
14103;DHT22;7129;48.832;12.472;2022-12-10T00:18:34;2.00;99.90
14103;DHT22;7129;48.832;12.472;2022-12-10T00:23:36;2.10;99.90
14103;DHT22;7129;48.832;12.472;2022-12-10T00:28:38;2.00;99.90
14103;DHT22;7129;48.832;12.472;2022-12-10T00:33:43;2.10;99.90
14103;DHT22;7129;48.832;12.472;2022-12-10T00:38:46;2.10;99.90
14103;DHT22;7129;48.832;12.472;2022-12-10T00:43:48;2.10;99.90
14103;DHT22;7129;48.832;12.472;2022-12-10T00:48:52;2.00;99.90
14103;DHT22;7129;48.832;12.472;2022-12-10T00:53:55;2.00;99.90
14103;DHT22;7129;48.832;12.472;2022-12-10T00:58:57;2.20;99.90
14103;DHT22;7129;48.832;12.472;2022-12-10T01:04:04;2.10;99.90
14103;DHT22;7129;48.832;12.472;2022-12-10T01:09:08;2.00;99.90
14103;DHT22;7129;48.832;12.472;2022-12-10T01:14:12;2.00;99.90
14103;DHT22;7129;48.832;12.472;2022-12-10T01:19:17;2.00;99.90
14103;DHT22;7129;48.832;12.472;2022-12-10T01:24:22;2.10;99.90
14103;DHT22;7129;48.832;12.472;2022-12-10T01:29:24;2.00;99.90
14103;DHT22;7129;48.832;12.472;2022-12-10T01:34:28;2.10;99.90
14103;DHT22;7129;48.832;12.472;2022-12-10T01:39:30;2.10;99.90
14103;DHT22;7129;48.832;12.472;2022-12-10T01:45:04;2.10;99.90
14103;DHT22;7129;48.832;12.472;2022-12-10T01:50:08;2.00;99.90
14103;DHT22;7129;48.832;12.472;2022-12-10T01:55:39;2.10;99.90
14103;DHT22;7129;48.832;12.472;2022-12-10T02:00:49;2.00;99.90
14103;DHT22;7129;48.832;12.472;2022-12-10T02:06:05;2.10;99.90
14103;DHT22;7129;48.832;12.472;2022-12-10T02:11:14;2.10;99.90
14103;DHT22;7129;48.832;12.472;2022-12-10T02:16:22;2.00;99.90
14103;DHT22;7129;48.832;12.472;2022-12-10T02:21:34;2.10;99.90
14103;DHT22;7129;48.832;12.472;2022-12-10T02:26:43;2.00;99.90
14103;DHT22;7129;48.832;12.472;2022-12-10T02:31:49;2.00;99.90
14103;DHT22;7129;48.832;12.472;2022-12-10T02:36:54;2.00;99.90
14103;DHT22;7129;48.832;12.472;2022-12-10T02:41:59;1.90;99.90
14103;DHT22;7129;48.832;12.472;2022-12-10T02:47:06;1.90;99.90
14103;DHT22;7129;48.832;12.472;2022-12-10T02:52:28;1.90;99.90
14103;DHT22;7129;48.832;12.472;2022-12-10T02:57:36;1.80;99.90
14103;DHT22;7129;48.832;12.472;2022-12-10T03:08:08;1.90;99.90
14103;DHT22;7129;48.832;12.472;2022-12-10T03:13:14;1.90;99.90
14103;DHT22;7129;48.832;12.472;2022-12-10T03:18:39;1.90;99.90
14103;DHT22;7129;48.832;12.472;2022-12-10T03:23:43;1.90;99.90
14103;DHT22;7129;48.832;12.472;2022-12-10T03:28:50;2.00;99.90
14103;DHT22;7129;48.832;12.472;2022-12-10T03:33:54;2.00;99.90
14103;DHT22;7129;48.832;12.472;2022-12-10T03:38:56;2.00;99.90
14103;DHT22;7129;48.832;12.472;2022-12-10T03:44:00;2.00;99.90
14103;DHT22;7129;48.832;12.472;2022-12-10T03:49:04;2.00;99.90
14103;DHT22;7129;48.832;12.472;2022-12-10T03:54:06;2.00;99.90
14103;DHT22;7129;48.832;12.472;2022-12-10T03:59:07;2.00;99.90
14103;DHT22;7129;48.832;12.472;2022-12-10T04:04:11;2.00;99.90
14103;DHT22;7129;48.832;12.472;2022-12-10T04:09:14;2.00;99.90
14103;DHT22;7129;48.832;12.472;2022-12-10T04:14:16;2.00;99.90
14103;DHT22;7129;48.832;12.472;2022-12-10T04:19:48;2.00;99.90
14103;DHT22;7129;48.832;12.472;2022-12-10T04:24:50;2.00;99.90
14103;DHT22;7129;48.832;12.472;2022-12-10T04:30:11;2.10;99.90
14103;DHT22;7129;48.832;12.472;2022-12-10T04:35:15;2.20;99.90
14103;DHT22;7129;48.832;12.472;2022-12-10T04:40:17;2.00;99.90
14103;DHT22;7129;48.832;12.472;2022-12-10T04:45:20;2.00;99.90
14103;DHT22;7129;48.832;12.472;2022-12-10T04:50:23;2.00;99.90
14103;DHT22;7129;48.832;12.472;2022-12-10T04:55:25;2.00;99.90
14103;DHT22;7129;48.832;12.472;2022-12-10T05:00:27;2.00;99.90
14103;DHT22;7129;48.832;12.472;2022-12-10T05:05:33;2.00;99.90
14103;DHT22;7129;48.832;12.472;2022-12-10T05:10:35;2.00;99.90
14103;DHT22;7129;48.832;12.472;2022-12-10T05:15:56;2.00;99.90
14103;DHT22;7129;48.832;12.472;2022-12-10T05:21:02;2.00;99.90
14103;DHT22;7129;48.832;12.472;2022-12-10T05:26:06;2.10;99.90
14103;DHT22;7129;48.832;12.472;2022-12-10T05:31:12;2.00;99.90
14103;DHT22;7129;48.832;12.472;2022-12-10T05:36:18;2.00;99.90
14103;DHT22;7129;48.832;12.472;2022-12-10T05:41:23;2.00;99.90
14103;DHT22;7129;48.832;12.472;2022-12-10T05:46:27;2.00;99.90
14103;DHT22;7129;48.832;12.472;2022-12-10T05:51:33;2.00;99.90
14103;DHT22;7129;48.832;12.472;2022-12-10T05:56:35;2.00;99.90
14103;DHT22;7129;48.832;12.472;2022-12-10T06:01:37;2.00;99.90
14103;DHT22;7129;48.832;12.472;2022-12-10T06:06:41;1.90;99.90
14103;DHT22;7129;48.832;12.472;2022-12-10T06:11:43;2.00;99.90
14103;DHT22;7129;48.832;12.472;2022-12-10T06:16:45;2.00;99.90
14103;DHT22;7129;48.832;12.472;2022-12-10T06:21:48;2.00;99.90
14103;DHT22;7129;48.832;12.472;2022-12-10T06:26:50;2.10;99.90
14103;DHT22;7129;48.832;12.472;2022-12-10T06:31:52;2.00;99.90
14103;DHT22;7129;48.832;12.472;2022-12-10T06:36:55;2.10;99.90
14103;DHT22;7129;48.832;12.472;2022-12-10T06:41:57;2.00;99.90
14103;DHT22;7129;48.832;12.472;2022-12-10T06:46:59;2.00;99.90
14103;DHT22;7129;48.832;12.472;2022-12-10T06:52:03;2.10;99.90
14103;DHT22;7129;48.832;12.472;2022-12-10T06:57:05;2.00;99.90
14103;DHT22;7129;48.832;12.472;2022-12-10T07:02:08;2.10;99.90
14103;DHT22;7129;48.832;12.472;2022-12-10T07:07:11;2.10;99.90
14103;DHT22;7129;48.832;12.472;2022-12-10T07:12:13;2.10;99.90
14103;DHT22;7129;48.832;12.472;2022-12-10T07:17:15;2.10;99.90
14103;DHT22;7129;48.832;12.472;2022-12-10T07:22:18;2.10;99.90
14103;DHT22;7129;48.832;12.472;2022-12-10T07:27:20;2.10;99.90
14103;DHT22;7129;48.832;12.472;2022-12-10T07:32:22;2.10;99.90
14103;DHT22;7129;48.832;12.472;2022-12-10T07:37:25;2.10;99.90
14103;DHT22;7129;48.832;12.472;2022-12-10T07:42:27;2.10;99.90
14103;DHT22;7129;48.832;12.472;2022-12-10T07:47:29;2.10;99.90
14103;DHT22;7129;48.832;12.472;2022-12-10T07:52:33;2.10;99.90
14103;DHT22;7129;48.832;12.472;2022-12-10T07:57:35;2.10;99.90
14103;DHT22;7129;48.832;12.472;2022-12-10T08:02:37;2.10;99.90
14103;DHT22;7129;48.832;12.472;2022-12-10T08:07:40;2.10;99.90
14103;DHT22;7129;48.832;12.472;2022-12-10T08:12:42;2.10;99.90
14103;DHT22;7129;48.832;12.472;2022-12-10T08:17:44;2.30;99.90
14103;DHT22;7129;48.832;12.472;2022-12-10T08:22:48;2.20;99.90
14103;DHT22;7129;48.832;12.472;2022-12-10T08:27:50;2.20;99.90
14103;DHT22;7129;48.832;12.472;2022-12-10T08:32:53;2.30;99.90
14103;DHT22;7129;48.832;12.472;2022-12-10T08:37:56;2.30;99.90
14103;DHT22;7129;48.832;12.472;2022-12-10T08:42:58;2.30;99.90
14103;DHT22;7129;48.832;12.472;2022-12-10T08:48:01;2.40;99.90
14103;DHT22;7129;48.832;12.472;2022-12-10T08:53:05;2.40;99.90
14103;DHT22;7129;48.832;12.472;2022-12-10T08:58:09;2.50;99.90
14103;DHT22;7129;48.832;12.472;2022-12-10T09:03:11;2.50;99.90
14103;DHT22;7129;48.832;12.472;2022-12-10T09:08:14;2.50;99.90
14103;DHT22;7129;48.832;12.472;2022-12-10T09:13:16;2.60;99.90
14103;DHT22;7129;48.832;12.472;2022-12-10T09:18:18;2.60;99.90
14103;DHT22;7129;48.832;12.472;2022-12-10T09:23:22;2.70;99.90
14103;DHT22;7129;48.832;12.472;2022-12-10T09:28:24;2.70;99.90
14103;DHT22;7129;48.832;12.472;2022-12-10T09:33:26;2.80;99.90
14103;DHT22;7129;48.832;12.472;2022-12-10T09:38:30;2.80;99.90
14103;DHT22;7129;48.832;12.472;2022-12-10T09:43:42;2.90;99.90
